KBIH

Bishop Airport

Bishop, California, USA
KBIH 212334Z 2200/2224 35020G28KT P6SM SCT100 FM220200 35012G20KT P6SM SCT100 FM221500 34012G20KT P6SM FEW250
Issued Valid From Valid To
Jan-21 @ 23:34 UTC
(an hour ago)
Jan-22 @ 00:00 UTC
(37 minutes ago)
Jan-23 @ 00:00 UTC
(in 23 hours)
Jan-22 @ 00:00 to Jan-22 @ 02:00
KBIH 212334Z 2200/2224 35020G28KT P6SM SCT100
Wind Visibility Clouds
350° at 20 knots
 Gusting to 28 knots
Greater than 6 miles
  • Scattered at 10,000' AGL
From Jan-22 @ 02:00 to Jan-22 @ 15:00
FM220200 35012G20KT P6SM SCT100
Wind Visibility Clouds
350° at 12 knots
 Gusting to 20 knots
Greater than 6 miles
  • Scattered at 10,000' AGL
From Jan-22 @ 15:00 to Jan-23 @ 00:00
FM221500 34012G20KT P6SM FEW250
Wind Visibility Clouds
340° at 12 knots
 Gusting to 20 knots
Greater than 6 miles
  • Few at 25,000' AGL
KBIH 212334Z 2200/2224 35020G28KT P6SM SCT100 FM220200 35012G20KT P6SM SCT100 FM221500 34012G20KT P6SM FEW250
Issued Jan-21 @ 23:34 UTC
(an hour ago)
Valid From Jan-22 @ 00:00 UTC
(37 minutes ago)
Valid To Jan-23 @ 00:00 UTC
(in 23 hours)
Jan-22 @ 00:00 - Jan-22 @ 02:00
Wind Visibility
350° at 20 knots
 Gusting to 28 knots
Greater than 6 miles
Clouds
  • Scattered at 10,000' AGL
From Jan-22 @ 02:00 - Jan-22 @ 15:00
Wind Visibility
350° at 12 knots
 Gusting to 20 knots
Greater than 6 miles
Clouds
  • Scattered at 10,000' AGL
From Jan-22 @ 15:00 - Jan-23 @ 00:00
Wind Visibility
340° at 12 knots
 Gusting to 20 knots
Greater than 6 miles
Clouds
  • Few at 25,000' AGL